Time;durP1;ratioP1;P1;durP2;ratioP2;P2;SDS_P1;SDS_P2;PMS_P1;PMS_P2;Temp;Humidity;BMP_temperature;BMP_pressure;BME280_temperature;BME280_humidity;BME280_pressure;Samples;Min_cycle;Max_cycle;Signal;HPM_P1;HPM_P2
2023/05/17 00:01:10;;;;;;;3.13;2.80;;;23.80;57.10;;;;;;7605773;23;80966;-61
2023/05/17 00:04:10;;;;;;;4.35;3.00;;;23.80;57.00;;;;;;7604211;23;81253;-63
2023/05/17 00:07:11;;;;;;;3.22;2.70;;;23.80;56.90;;;;;;7605042;23;80994;-61
2023/05/17 00:10:11;;;;;;;3.33;2.70;;;23.80;56.90;;;;;;7604749;23;80594;-61
2023/05/17 00:13:12;;;;;;;2.80;2.53;;;23.80;56.90;;;;;;7604473;23;80318;-61
2023/05/17 00:16:12;;;;;;;2.90;2.60;;;23.80;57.00;;;;;;7604680;23;80966;-61
2023/05/17 00:19:13;;;;;;;4.70;2.63;;;23.70;57.00;;;;;;7605619;23;80434;-61
2023/05/17 00:22:13;;;;;;;3.30;2.65;;;23.70;57.00;;;;;;7603793;23;80964;-61
2023/05/17 00:25:14;;;;;;;3.10;2.80;;;23.70;57.60;;;;;;7605448;23;80403;-61
2023/05/17 00:28:15;;;;;;;2.92;2.63;;;23.70;57.00;;;;;;7605174;23;80047;-61
2023/05/17 00:31:15;;;;;;;3.65;3.05;;;23.70;57.00;;;;;;7605354;23;80979;-61
2023/05/17 00:34:18;;;;;;;2.65;2.45;;;23.70;57.00;;;;;;7603789;23;81598;-63
2023/05/17 00:37:18;;;;;;;4.25;2.70;;;23.70;57.10;;;;;;7604279;23;80161;-63
2023/05/17 00:40:19;;;;;;;2.90;2.58;;;23.70;57.00;;;;;;7604936;23;80322;-64
2023/05/17 00:43:20;;;;;;;4.68;2.97;;;23.70;57.00;;;;;;7605615;23;80306;-60
2023/05/17 00:46:20;;;;;;;2.78;2.30;;;23.70;57.00;;;;;;7605966;23;80272;-61
2023/05/17 00:49:21;;;;;;;2.78;2.53;;;23.70;56.90;;;;;;7605012;23;81599;-61
2023/05/17 00:52:21;;;;;;;3.53;2.78;;;23.70;56.90;;;;;;7605670;23;80425;-61
2023/05/17 00:55:21;;;;;;;2.85;2.63;;;23.70;56.80;;;;;;7579701;23;81629;-59
2023/05/17 00:58:22;;;;;;;2.63;2.42;;;23.70;56.90;;;;;;7604768;23;80252;-60
2023/05/17 01:01:23;;;;;;;4.13;2.80;;;23.70;56.90;;;;;;7606341;23;80314;-60
2023/05/17 01:04:23;;;;;;;4.97;2.33;;;23.70;56.90;;;;;;7578727;23;83132;-60
2023/05/17 01:07:24;;;;;;;2.50;2.30;;;23.70;56.90;;;;;;7604726;23;80115;-62
2023/05/17 01:10:24;;;;;;;3.00;2.42;;;23.70;56.80;;;;;;7606262;23;80587;-61
2023/05/17 01:13:25;;;;;;;3.55;2.53;;;23.70;57.00;;;;;;7605841;23;80663;-62
2023/05/17 01:16:25;;;;;;;3.03;2.45;;;23.70;56.90;;;;;;7606165;23;80303;-61
2023/05/17 01:19:26;;;;;;;3.40;2.72;;;23.70;56.90;;;;;;7606106;23;80138;-70
2023/05/17 01:22:27;;;;;;;2.20;2.00;;;23.70;56.80;;;;;;7579301;23;83060;-68
2023/05/17 01:25:28;;;;;;;2.67;2.13;;;23.80;57.00;;;;;;7605891;23;80423;-71
2023/05/17 01:28:28;;;;;;;4.65;2.35;;;23.70;57.00;;;;;;7606236;23;80176;-74
2023/05/17 01:31:30;;;;;;;2.47;2.13;;;23.70;57.10;;;;;;7603441;23;80988;-76
2023/05/17 01:34:31;;;;;;;3.50;2.50;;;23.70;57.20;;;;;;7605652;23;80885;-76
2023/05/17 01:37:31;;;;;;;2.78;2.42;;;23.70;57.10;;;;;;7604638;23;80567;-77
2023/05/17 01:40:32;;;;;;;3.45;2.75;;;23.70;57.20;;;;;;7579151;23;83206;-78
2023/05/17 01:43:33;;;;;;;3.35;2.20;;;23.70;57.10;;;;;;7578080;23;83016;-75
2023/05/17 01:46:34;;;;;;;2.55;2.10;;;23.70;57.00;;;;;;7578836;23;83492;-75
2023/05/17 01:49:36;;;;;;;4.65;2.53;;;23.70;57.10;;;;;;7605948;23;80586;-77
2023/05/17 01:52:36;;;;;;;2.40;2.20;;;23.70;57.10;;;;;;7605520;23;80739;-77
2023/05/17 01:55:37;;;;;;;3.13;2.40;;;23.70;57.10;;;;;;7605938;23;81216;-62
2023/05/17 01:58:37;;;;;;;2.90;2.30;;;23.70;57.10;;;;;;7578403;23;81416;-64
2023/05/17 02:01:38;;;;;;;3.22;2.55;;;23.70;57.00;;;;;;7578741;23;83807;-63
2023/05/17 02:04:38;;;;;;;2.25;2.05;;;23.70;57.10;;;;;;7603573;23;80416;-64
2023/05/17 02:07:39;;;;;;;2.30;2.10;;;23.60;57.10;;;;;;7605139;23;81926;-65
2023/05/17 02:10:39;;;;;;;2.97;2.00;;;23.70;57.00;;;;;;7605678;23;80372;-64
2023/05/17 02:13:40;;;;;;;2.28;2.08;;;23.70;56.90;;;;;;7579204;23;83521;-65
2023/05/17 02:16:40;;;;;;;3.47;2.20;;;23.70;57.00;;;;;;7604722;23;80111;-61
2023/05/17 02:19:41;;;;;;;3.08;2.10;;;23.70;57.00;;;;;;7606002;23;80216;-59
2023/05/17 02:22:41;;;;;;;2.35;1.80;;;23.70;57.00;;;;;;7605187;23;80830;-59
2023/05/17 02:25:42;;;;;;;2.53;2.22;;;23.70;56.80;;;;;;7579358;23;82285;-60
2023/05/17 02:28:42;;;;;;;2.60;1.90;;;23.70;56.90;;;;;;7605543;23;80700;-58
2023/05/17 02:31:43;;;;;;;2.10;1.88;;;23.70;56.80;;;;;;7604917;23;80749;-59
2023/05/17 02:34:44;;;;;;;2.88;2.03;;;23.70;56.90;;;;;;7605544;23;88736;-58
2023/05/17 02:37:44;;;;;;;2.53;1.90;;;23.70;56.80;;;;;;7605758;23;80858;-60
2023/05/17 02:40:46;;;;;;;2.75;2.25;;;23.70;56.80;;;;;;7578265;23;82335;-60
2023/05/17 02:43:46;;;;;;;1.77;1.65;;;23.70;56.80;;;;;;7579046;23;83316;-58
2023/05/17 02:46:47;;;;;;;2.22;1.90;;;23.70;56.80;;;;;;7604035;23;80251;-59
2023/05/17 02:49:47;;;;;;;2.75;1.90;;;23.70;56.80;;;;;;7604251;23;81954;-59
2023/05/17 02:52:48;;;;;;;2.20;2.00;;;23.70;56.70;;;;;;7578694;23;81702;-60
2023/05/17 02:55:49;;;;;;;1.92;1.75;;;23.70;56.80;;;;;;7578841;23;83129;-61
2023/05/17 02:58:49;;;;;;;2.17;1.98;;;23.70;56.90;;;;;;7605887;23;80303;-61
2023/05/17 03:01:50;;;;;;;1.67;1.50;;;23.70;56.80;;;;;;7579321;23;82722;-60
2023/05/17 03:04:51;;;;;;;1.83;1.65;;;23.70;56.80;;;;;;7578856;23;82861;-60
2023/05/17 03:07:52;;;;;;;2.70;1.90;;;23.80;56.80;;;;;;7578982;23;82998;-59
2023/05/17 03:10:52;;;;;;;1.65;1.50;;;23.80;56.80;;;;;;7578248;23;82944;-63
2023/05/17 03:13:53;;;;;;;2.85;1.88;;;23.80;56.90;;;;;;7579418;23;83639;-63
2023/05/17 03:16:58;;;;;;;1.60;1.50;;;23.80;56.90;;;;;;7578719;23;83276;-66
2023/05/17 03:19:59;;;;;;;2.10;1.80;;;23.70;56.90;;;;;;7578916;23;83068;-64
2023/05/17 03:23:00;;;;;;;1.70;1.60;;;23.70;56.80;;;;;;7578274;23;82023;-63
2023/05/17 03:26:01;;;;;;;1.40;1.30;;;23.70;56.60;;;;;;7605584;23;80483;-63
2023/05/17 03:29:04;;;;;;;1.75;1.65;;;23.70;56.80;;;;;;7578129;23;82945;-65
2023/05/17 03:32:06;;;;;;;2.25;1.80;;;23.70;56.60;;;;;;7578390;23;81735;-67
2023/05/17 03:35:07;;;;;;;1.83;1.67;;;23.70;56.60;;;;;;7577585;23;82645;-66
2023/05/17 03:38:08;;;;;;;1.80;1.70;;;23.80;56.70;;;;;;7578977;23;82826;-67
2023/05/17 03:41:09;;;;;;;1.95;1.65;;;23.80;56.70;;;;;;7576726;23;88122;-64
2023/05/17 03:44:09;;;;;;;1.75;1.40;;;23.80;56.70;;;;;;7604988;23;81249;-69
2023/05/17 03:47:11;;;;;;;1.65;1.55;;;23.80;56.70;;;;;;7575626;23;82942;-73
2023/05/17 03:50:11;;;;;;;1.38;1.27;;;23.80;56.50;;;;;;7605192;23;80408;-63
2023/05/17 03:53:12;;;;;;;1.58;1.48;;;23.70;56.50;;;;;;7577183;23;83267;-63
2023/05/17 03:56:12;;;;;;;1.73;1.25;;;23.70;56.40;;;;;;7604585;23;80376;-65
2023/05/17 03:59:13;;;;;;;2.10;1.40;;;23.70;56.50;;;;;;7604905;23;80973;-64
2023/05/17 04:02:14;;;;;;;2.40;1.75;;;23.70;56.60;;;;;;7604664;23;81048;-64
2023/05/17 04:05:15;;;;;;;1.77;1.60;;;23.70;56.50;;;;;;7578948;23;81674;-69
2023/05/17 04:08:18;;;;;;;2.80;1.63;;;23.60;56.50;;;;;;7574791;23;83408;-69
2023/05/17 04:11:22;;;;;;;2.20;1.92;;;23.70;56.40;;;;;;7576240;23;87703;-63
2023/05/17 04:14:23;;;;;;;4.72;2.03;;;23.70;56.50;;;;;;7576408;23;82543;-66
2023/05/17 04:17:24;;;;;;;5.30;2.13;;;23.70;56.60;;;;;;7576133;23;83008;-63
2023/05/17 04:20:24;;;;;;;2.67;1.90;;;23.70;56.70;;;;;;7578803;23;83571;-59
2023/05/17 04:23:25;;;;;;;2.15;1.83;;;23.70;56.90;;;;;;7577913;23;82266;-64
2023/05/17 04:26:26;;;;;;;7.05;2.03;;;23.70;57.20;;;;;;7576545;23;82228;-60
2023/05/17 04:29:26;;;;;;;3.42;1.83;;;23.70;57.30;;;;;;7574384;23;83812;-70
2023/05/17 04:32:27;;;;;;;2.75;1.70;;;23.70;57.30;;;;;;7576816;23;82971;-66
2023/05/17 04:35:28;;;;;;;2.85;1.63;;;23.70;57.30;;;;;;7575479;23;81432;-66
2023/05/17 04:38:29;;;;;;;4.63;1.80;;;23.70;57.50;;;;;;7575981;23;82365;-65
2023/05/17 04:41:31;;;;;;;3.92;1.77;;;23.70;57.40;;;;;;7574541;23;82953;-67
2023/05/17 04:44:34;;;;;;;1.88;1.52;;;23.70;57.20;;;;;;7573319;23;81373;-63
2023/05/17 04:47:36;;;;;;;2.38;1.67;;;23.70;57.10;;;;;;7573111;23;83245;-63
2023/05/17 04:50:36;;;;;;;3.95;1.70;;;23.70;57.10;;;;;;7573871;23;82961;-62
2023/05/17 04:53:38;;;;;;;1.40;1.30;;;23.70;57.20;;;;;;7574516;23;83708;-67
2023/05/17 04:56:43;;;;;;;7.25;1.80;;;23.70;57.10;;;;;;7559731;23;82624;-64
2023/05/17 04:59:49;;;;;;;1.83;1.60;;;23.70;57.00;;;;;;7569341;23;83348;-65
2023/05/17 05:02:50;;;;;;;6.55;1.92;;;23.60;57.00;;;;;;7600508;23;80518;-65
2023/05/17 05:05:50;;;;;;;3.90;1.20;;;23.60;56.70;;;;;;7576156;23;83516;-66
2023/05/17 05:08:51;;;;;;;2.45;1.42;;;23.50;56.70;;;;;;7575130;23;81734;-66
2023/05/17 05:11:52;;;;;;;1.98;1.30;;;23.60;56.70;;;;;;7578086;23;83125;-66
2023/05/17 05:14:53;;;;;;;2.20;1.42;;;23.60;56.60;;;;;;7578173;23;83158;-66
2023/05/17 05:17:54;;;;;;;2.40;1.20;;;23.50;56.60;;;;;;7552632;23;83610;-68
2023/05/17 05:20:55;;;;;;;3.05;2.05;;;23.50;56.70;;;;;;7574493;23;82854;-69
2023/05/17 05:23:55;;;;;;;6.03;1.88;;;23.40;56.60;;;;;;7577291;23;82796;-67
2023/05/17 05:26:56;;;;;;;2.20;1.67;;;23.30;56.60;;;;;;7603940;23;80869;-67
2023/05/17 05:29:58;;;;;;;2.65;1.35;;;23.30;56.60;;;;;;7466289;23;83342;-66
2023/05/17 05:32:58;;;;;;;2.10;1.45;;;23.30;56.50;;;;;;7599991;23;80290;-66
2023/05/17 05:35:59;;;;;;;1.58;1.33;;;23.20;56.40;;;;;;7556923;23;83517;-55
2023/05/17 05:39:00;;;;;;;1.50;1.30;;;23.20;56.40;;;;;;7547906;23;83432;-56
2023/05/17 05:42:03;;;;;;;2.20;1.40;;;23.20;56.40;;;;;;7574455;23;82624;-56
2023/05/17 05:45:04;;;;;;;3.20;1.60;;;23.20;56.40;;;;;;7570650;23;82821;-59
2023/05/17 05:48:07;;;;;;;2.03;1.20;;;23.10;56.40;;;;;;7549150;23;83407;-59
2023/05/17 05:51:08;;;;;;;3.50;1.08;;;23.10;56.50;;;;;;7575326;23;83306;-59
2023/05/17 05:54:11;;;;;;;1.55;1.05;;;23.20;56.60;;;;;;7571706;23;80720;-64
2023/05/17 05:57:12;;;;;;;1.95;1.00;;;23.10;56.50;;;;;;7574596;23;82939;-61
2023/05/17 06:00:13;;;;;;;1.55;1.15;;;23.10;56.70;;;;;;7571262;23;83591;-61
2023/05/17 06:03:14;;;;;;;2.70;1.40;;;23.10;57.40;;;;;;7600104;23;80434;-63
2023/05/17 06:06:17;;;;;;;2.20;1.20;;;23.10;56.80;;;;;;7600847;23;80431;-61
2023/05/17 06:09:17;;;;;;;1.52;1.15;;;23.10;57.60;;;;;;7602301;23;80772;-61
2023/05/17 06:12:19;;;;;;;1.52;1.35;;;23.10;57.00;;;;;;7572035;23;81601;-60
2023/05/17 06:15:19;;;;;;;1.48;1.27;;;23.10;57.00;;;;;;7601579;23;80375;-59
2023/05/17 06:18:20;;;;;;;1.58;1.02;;;23.00;57.00;;;;;;7599731;23;80869;-60
2023/05/17 06:21:20;;;;;;;3.83;1.05;;;23.10;57.00;;;;;;7603366;23;80168;-59
2023/05/17 06:24:21;;;;;;;1.67;1.00;;;23.10;57.00;;;;;;7596995;23;80332;-59
2023/05/17 06:27:21;;;;;;;1.95;1.23;;;23.10;56.90;;;;;;7602143;23;80413;-59
2023/05/17 06:30:22;;;;;;;1.42;1.13;;;23.00;57.00;;;;;;7602002;23;81150;-58
2023/05/17 06:33:22;;;;;;;2.83;1.20;;;23.00;57.00;;;;;;7600920;23;80683;-61
2023/05/17 06:36:23;;;;;;;2.65;1.30;;;23.00;57.00;;;;;;7600430;23;80876;-60
2023/05/17 06:39:24;;;;;;;2.70;1.35;;;23.00;56.90;;;;;;7600900;23;80049;-60
2023/05/17 06:42:24;;;;;;;3.95;1.20;;;23.00;56.90;;;;;;7601188;23;80459;-60
2023/05/17 06:45:26;;;;;;;2.97;1.00;;;23.00;57.10;;;;;;7599525;23;80723;-60
2023/05/17 06:48:26;;;;;;;1.35;0.90;;;23.00;57.00;;;;;;7600731;23;81468;-60
2023/05/17 06:51:27;;;;;;;2.25;1.83;;;23.00;57.00;;;;;;7598645;23;81703;-71
2023/05/17 06:54:27;;;;;;;1.88;1.00;;;23.00;56.90;;;;;;7598760;23;80707;-69
2023/05/17 06:57:28;;;;;;;1.75;1.17;;;23.00;56.80;;;;;;7574578;23;83717;-69
2023/05/17 07:00:28;;;;;;;1.33;1.08;;;23.00;56.80;;;;;;7602156;23;81106;-69
2023/05/17 07:03:29;;;;;;;2.13;1.00;;;22.90;56.70;;;;;;7599848;23;80724;-71
2023/05/17 07:06:30;;;;;;;2.28;1.13;;;22.90;56.90;;;;;;7597945;23;80400;-68
2023/05/17 07:09:30;;;;;;;1.02;0.90;;;22.90;56.90;;;;;;7601550;23;81104;-68
2023/05/17 07:12:31;;;;;;;1.30;1.15;;;22.90;56.90;;;;;;7600880;23;80900;-69
2023/05/17 07:15:32;;;;;;;1.52;0.90;;;22.90;56.80;;;;;;7601887;23;80875;-68
2023/05/17 07:18:32;;;;;;;1.88;1.13;;;22.90;56.70;;;;;;7601991;23;80443;-69
2023/05/17 07:21:33;;;;;;;1.70;1.38;;;22.90;56.90;;;;;;7596957;23;80168;-69
2023/05/17 07:24:34;;;;;;;3.45;1.00;;;22.90;56.90;;;;;;7600224;23;80900;-68
2023/05/17 07:27:35;;;;;;;2.17;1.08;;;22.90;56.90;;;;;;7591512;23;80747;-69
2023/05/17 07:30:35;;;;;;;2.00;0.90;;;22.90;56.80;;;;;;7601886;23;81423;-69
2023/05/17 07:33:36;;;;;;;1.35;0.90;;;22.90;56.90;;;;;;7601759;23;80423;-68
2023/05/17 07:36:36;;;;;;;0.95;0.90;;;22.90;56.90;;;;;;7600116;23;80187;-71
2023/05/17 07:39:37;;;;;;;1.00;0.90;;;22.90;57.00;;;;;;7599286;23;80027;-69
2023/05/17 07:42:37;;;;;;;3.55;1.10;;;22.90;57.00;;;;;;7598429;23;80780;-72
2023/05/17 07:45:38;;;;;;;1.08;0.98;;;22.90;57.00;;;;;;7602174;23;81649;-59
2023/05/17 07:48:38;;;;;;;4.28;1.63;;;22.90;57.00;;;;;;7599170;23;80210;-59
2023/05/17 07:51:39;;;;;;;3.17;1.55;;;22.90;57.10;;;;;;7596451;23;81099;-59
2023/05/17 07:54:39;;;;;;;2.85;1.30;;;22.90;57.00;;;;;;7597670;23;81348;-59
2023/05/17 07:57:40;;;;;;;1.85;1.05;;;23.00;57.10;;;;;;7600024;23;81029;-58
2023/05/17 08:00:41;;;;;;;1.30;1.20;;;23.00;57.00;;;;;;7599172;23;80275;-59
2023/05/17 08:03:46;;;;;;;2.03;1.10;;;23.00;57.10;;;;;;7601437;23;80166;-67
2023/05/17 08:06:48;;;;;;;2.33;1.30;;;22.90;57.10;;;;;;7557697;23;82330;-65
2023/05/17 08:09:49;;;;;;;1.85;1.27;;;23.00;57.20;;;;;;7599889;23;80715;-68
2023/05/17 08:12:49;;;;;;;3.70;1.52;;;23.00;57.20;;;;;;7601927;23;80808;-67
2023/05/17 08:15:50;;;;;;;3.17;1.55;;;22.90;57.20;;;;;;7602529;23;80441;-67
2023/05/17 08:18:51;;;;;;;1.70;1.20;;;22.90;57.10;;;;;;7598455;23;80317;-67
2023/05/17 08:21:51;;;;;;;1.38;1.00;;;22.90;57.20;;;;;;7602806;23;81191;-62
2023/05/17 08:24:52;;;;;;;2.75;1.10;;;22.90;57.20;;;;;;7602231;23;80716;-61
2023/05/17 08:27:52;;;;;;;1.70;1.00;;;22.90;57.20;;;;;;7604454;23;80509;-62
2023/05/17 08:30:53;;;;;;;1.77;1.00;;;22.90;57.20;;;;;;7604299;23;80991;-62
2023/05/17 08:33:53;;;;;;;1.42;1.13;;;22.90;57.30;;;;;;7601862;23;80528;-62
2023/05/17 08:36:54;;;;;;;2.10;1.10;;;22.90;57.20;;;;;;7576420;23;80624;-61
2023/05/17 08:39:54;;;;;;;1.75;1.30;;;22.90;57.30;;;;;;7604042;23;80384;-61
2023/05/17 08:42:55;;;;;;;1.67;1.40;;;22.90;57.20;;;;;;7603973;23;80349;-62
2023/05/17 08:45:56;;;;;;;1.08;0.98;;;22.90;57.20;;;;;;7604190;23;80395;-62
2023/05/17 08:48:58;;;;;;;1.30;1.20;;;23.00;57.30;;;;;;7604272;23;81333;-62
2023/05/17 08:51:59;;;;;;;1.45;1.17;;;23.00;57.30;;;;;;7576949;23;80311;-62
2023/05/17 08:55:04;;;;;;;1.02;0.98;;;23.00;57.20;;;;;;7605112;23;80465;-62
2023/05/17 08:58:06;;;;;;;1.45;1.13;;;23.00;57.30;;;;;;7603990;23;80826;-62
2023/05/17 09:01:07;;;;;;;1.30;1.20;;;22.90;57.10;;;;;;7604542;23;80479;-62
2023/05/17 09:04:08;;;;;;;1.23;1.02;;;22.90;57.10;;;;;;7603261;23;80274;-63
2023/05/17 09:07:09;;;;;;;2.25;1.02;;;23.00;57.20;;;;;;7606099;23;80224;-63
2023/05/17 09:10:09;;;;;;;0.80;0.80;;;22.90;57.10;;;;;;7598663;23;80203;-61
2023/05/17 09:13:11;;;;;;;2.10;1.50;;;22.90;57.10;;;;;;7603430;23;81305;-62
2023/05/17 09:16:11;;;;;;;2.05;1.38;;;22.90;57.00;;;;;;7603910;23;80970;-62
2023/05/17 09:19:12;;;;;;;1.40;1.27;;;22.90;57.10;;;;;;7605246;23;80712;-65
2023/05/17 09:22:13;;;;;;;1.75;1.48;;;22.90;56.90;;;;;;7602713;23;80912;-63
2023/05/17 09:25:14;;;;;;;4.07;1.60;;;22.90;56.90;;;;;;7601738;23;81192;-62
2023/05/17 09:28:15;;;;;;;6.47;4.15;;;22.90;57.00;;;;;;7601414;23;80308;-61
2023/05/17 09:31:16;;;;;;;9.07;4.43;;;22.90;57.00;;;;;;7603203;23;80361;-61
2023/05/17 09:34:16;;;;;;;6.30;3.85;;;22.90;57.00;;;;;;7602302;23;80379;-63
2023/05/17 09:37:17;;;;;;;7.55;4.22;;;22.90;57.00;;;;;;7603182;23;80424;-58
2023/05/17 09:40:17;;;;;;;5.20;3.22;;;22.90;56.90;;;;;;7590293;23;80730;-60
2023/05/17 09:43:18;;;;;;;4.97;3.05;;;22.90;57.00;;;;;;7596521;23;80535;-59
2023/05/17 09:46:18;;;;;;;4.22;2.58;;;22.90;57.00;;;;;;7601449;23;80391;-58
2023/05/17 09:49:19;;;;;;;4.60;2.67;;;22.90;56.90;;;;;;7601581;23;80110;-59
2023/05/17 09:52:19;;;;;;;3.78;2.28;;;22.90;56.90;;;;;;7602903;23;80238;-58
2023/05/17 09:55:23;;;;;;;4.13;2.30;;;22.90;56.90;;;;;;7599472;23;80387;-62
2023/05/17 09:58:24;;;;;;;3.63;2.38;;;22.90;56.90;;;;;;7599651;23;86739;-62
2023/05/17 10:01:25;;;;;;;3.78;2.17;;;22.90;56.90;;;;;;7601717;23;80348;-62
2023/05/17 10:04:25;;;;;;;4.22;2.03;;;22.90;56.90;;;;;;7601094;23;80257;-61
2023/05/17 10:07:26;;;;;;;3.70;1.85;;;22.90;56.90;;;;;;7604437;23;80185;-62
2023/05/17 10:10:27;;;;;;;4.05;1.77;;;22.90;56.90;;;;;;7605912;23;81456;-63
2023/05/17 10:13:28;;;;;;;1.67;1.50;;;22.90;56.80;;;;;;7605449;23;80243;-63
2023/05/17 10:16:28;;;;;;;3.63;1.90;;;22.90;56.70;;;;;;7604783;23;80401;-63
2023/05/17 10:19:28;;;;;;;3.42;2.17;;;22.90;56.80;;;;;;7599841;23;80370;-63
2023/05/17 10:22:29;;;;;;;1.88;1.63;;;22.90;56.80;;;;;;7601685;23;82260;-63
2023/05/17 10:25:30;;;;;;;4.80;2.20;;;22.90;56.70;;;;;;7603556;23;80713;-61
2023/05/17 10:28:30;;;;;;;2.95;1.83;;;22.90;56.80;;;;;;7601679;23;80433;-61
2023/05/17 10:31:35;;;;;;;4.15;2.28;;;22.90;56.70;;;;;;7569245;23;81629;-62
2023/05/17 10:34:35;;;;;;;3.05;2.55;;;22.90;56.50;;;;;;7597666;23;80554;-62
2023/05/17 10:37:36;;;;;;;2.45;1.63;;;22.90;56.40;;;;;;7600791;23;80920;-63
2023/05/17 10:40:37;;;;;;;2.55;1.85;;;22.90;56.30;;;;;;7600044;23;81783;-62
2023/05/17 10:43:37;;;;;;;2.45;1.52;;;22.90;56.30;;;;;;7603900;23;80306;-61
2023/05/17 10:46:38;;;;;;;3.80;1.70;;;22.90;56.20;;;;;;7595339;23;81575;-61
2023/05/17 10:49:40;;;;;;;3.85;1.92;;;22.90;56.10;;;;;;7570826;23;81998;-62
2023/05/17 10:52:40;;;;;;;3.38;1.73;;;22.90;56.10;;;;;;7603099;23;81829;-62
2023/05/17 10:55:41;;;;;;;5.00;1.77;;;22.90;56.20;;;;;;7601226;23;80299;-62
2023/05/17 10:58:41;;;;;;;2.15;1.70;;;22.90;56.20;;;;;;7598044;23;81233;-62
2023/05/17 11:01:42;;;;;;;2.63;1.73;;;22.90;55.90;;;;;;7603081;23;80352;-61
2023/05/17 11:04:43;;;;;;;2.60;2.00;;;22.90;55.90;;;;;;7600995;23;81070;-62
2023/05/17 11:07:44;;;;;;;2.00;1.75;;;22.90;55.80;;;;;;7602086;23;80333;-61
2023/05/17 11:10:44;;;;;;;3.40;2.13;;;22.90;55.80;;;;;;7602899;23;80458;-60
2023/05/17 11:13:45;;;;;;;3.20;2.53;;;22.90;55.70;;;;;;7602407;23;80468;-62
2023/05/17 11:16:45;;;;;;;2.60;2.28;;;22.90;55.60;;;;;;7602484;23;80719;-62
2023/05/17 11:19:46;;;;;;;3.35;2.10;;;22.80;55.50;;;;;;7602885;23;80730;-62
2023/05/17 11:22:46;;;;;;;3.00;2.08;;;22.80;55.50;;;;;;7602952;23;80397;-61
2023/05/17 11:25:47;;;;;;;4.22;2.58;;;22.80;55.40;;;;;;7603319;23;81043;-61
2023/05/17 11:28:47;;;;;;;2.28;2.00;;;22.80;55.30;;;;;;7601893;23;81393;-61
2023/05/17 11:31:48;;;;;;;2.72;2.05;;;22.80;55.30;;;;;;7600278;23;81353;-62
2023/05/17 11:34:48;;;;;;;3.90;2.80;;;22.80;55.30;;;;;;7576447;23;80225;-62
2023/05/17 11:37:49;;;;;;;4.80;2.83;;;22.80;55.40;;;;;;7601120;23;82394;-62
2023/05/17 11:40:50;;;;;;;4.03;2.50;;;22.70;55.30;;;;;;7602313;23;81484;-62
2023/05/17 11:43:50;;;;;;;3.53;2.15;;;22.70;55.20;;;;;;7601835;23;80637;-69
2023/05/17 11:46:51;;;;;;;3.45;2.25;;;22.70;55.20;;;;;;7602314;23;80328;-68
2023/05/17 11:49:51;;;;;;;3.53;2.47;;;22.70;55.30;;;;;;7602628;23;80178;-66
2023/05/17 11:52:57;;;;;;;2.42;2.10;;;22.70;55.20;;;;;;7601210;23;81574;-66
2023/05/17 11:55:57;;;;;;;3.10;2.17;;;22.70;55.30;;;;;;7599023;23;81078;-66
2023/05/17 11:58:58;;;;;;;2.20;1.80;;;22.70;55.20;;;;;;7602475;23;81613;-66
2023/05/17 12:01:58;;;;;;;4.13;2.72;;;22.70;55.20;;;;;;7574100;23;81827;-68
2023/05/17 12:04:59;;;;;;;5.43;2.80;;;22.70;55.20;;;;;;7603530;23;80577;-68
2023/05/17 12:07:59;;;;;;;5.18;2.80;;;22.70;55.20;;;;;;7577164;23;81438;-71
2023/05/17 12:11:00;;;;;;;3.83;2.85;;;22.70;55.20;;;;;;7576347;23;82426;-70
2023/05/17 12:14:01;;;;;;;3.88;2.78;;;22.70;55.10;;;;;;7601701;23;80350;-68
2023/05/17 12:17:02;;;;;;;4.68;2.53;;;22.70;55.10;;;;;;7603459;23;80830;-70
2023/05/17 12:20:03;;;;;;;5.13;3.20;;;22.70;55.10;;;;;;7603685;23;80667;-69
2023/05/17 12:23:03;;;;;;;4.32;3.00;;;22.70;55.20;;;;;;7602678;23;80235;-68
2023/05/17 12:26:04;;;;;;;3.20;2.63;;;22.70;55.00;;;;;;7602778;23;80254;-69
2023/05/17 12:29:04;;;;;;;5.30;3.10;;;22.70;55.10;;;;;;7602320;23;80433;-68
2023/05/17 12:32:05;;;;;;;4.00;2.70;;;22.70;55.10;;;;;;7604110;23;80307;-69
2023/05/17 12:35:05;;;;;;;6.32;2.55;;;22.70;55.20;;;;;;7601528;23;80713;-69
2023/05/17 12:38:06;;;;;;;3.15;2.30;;;22.70;55.10;;;;;;7603260;23;80258;-67
2023/05/17 12:41:06;;;;;;;4.30;3.00;;;22.70;55.10;;;;;;7604642;23;80312;-64
2023/05/17 12:44:07;;;;;;;6.25;3.42;;;22.70;55.10;;;;;;7605042;23;80683;-64
2023/05/17 12:47:07;;;;;;;3.55;2.38;;;22.70;55.00;;;;;;7604120;23;81496;-64
2023/05/17 12:50:08;;;;;;;2.80;2.28;;;22.70;55.00;;;;;;7604956;23;80958;-62
2023/05/17 12:53:08;;;;;;;3.00;2.53;;;22.60;54.80;;;;;;7604578;23;81161;-64
2023/05/17 12:56:09;;;;;;;5.95;2.78;;;22.60;54.90;;;;;;7604326;23;81718;-63
2023/05/17 12:59:12;;;;;;;4.13;3.00;;;22.60;54.80;;;;;;7602792;23;86605;-64
2023/05/17 13:02:13;;;;;;;4.90;2.28;;;22.70;54.70;;;;;;7604048;23;80880;-63
2023/05/17 13:05:13;;;;;;;3.85;2.20;;;22.60;54.70;;;;;;7603652;23;80877;-63
2023/05/17 13:08:14;;;;;;;2.85;2.17;;;22.60;54.70;;;;;;7604134;23;80183;-64
2023/05/17 13:11:15;;;;;;;2.92;1.92;;;22.60;54.70;;;;;;7602265;23;80033;-61
2023/05/17 13:14:15;;;;;;;4.13;2.30;;;22.60;55.40;;;;;;7601345;23;80740;-61
2023/05/17 13:17:16;;;;;;;4.57;2.00;;;22.60;54.80;;;;;;7576326;23;83475;-69
2023/05/17 13:20:17;;;;;;;2.63;1.98;;;22.60;54.60;;;;;;7601982;23;81034;-68
2023/05/17 13:23:17;;;;;;;5.82;1.95;;;22.60;54.60;;;;;;7601556;23;81045;-71
2023/05/17 13:26:18;;;;;;;3.35;1.65;;;22.60;54.50;;;;;;7603649;23;81256;-72
2023/05/17 13:29:18;;;;;;;2.40;1.55;;;22.60;54.40;;;;;;7603937;23;79978;-70
2023/05/17 13:32:19;;;;;;;2.78;1.55;;;22.60;54.30;;;;;;7603995;23;80868;-67
2023/05/17 13:35:19;;;;;;;2.55;2.17;;;22.60;54.30;;;;;;7605767;23;80605;-67
2023/05/17 13:38:20;;;;;;;4.60;2.30;;;22.60;54.20;;;;;;7598037;23;80498;-61
2023/05/17 13:41:20;;;;;;;3.83;2.08;;;22.60;54.20;;;;;;7602819;23;80871;-65
2023/05/17 13:44:21;;;;;;;7.78;2.38;;;22.60;54.10;;;;;;7603772;23;80436;-67
2023/05/17 13:47:21;;;;;;;9.10;2.38;;;22.50;53.90;;;;;;7576086;23;83342;-68
2023/05/17 13:50:22;;;;;;;4.65;2.20;;;22.40;53.90;;;;;;7602285;23;82239;-68
2023/05/17 13:53:23;;;;;;;2.38;2.15;;;22.30;54.10;;;;;;7603780;23;80814;-64
2023/05/17 13:56:23;;;;;;;7.13;2.10;;;22.30;54.20;;;;;;7602654;23;80344;-64
2023/05/17 13:59:24;;;;;;;4.50;2.03;;;22.30;54.50;;;;;;7603159;23;80385;-63
2023/05/17 14:02:25;;;;;;;3.60;2.40;;;22.30;54.20;;;;;;7602047;23;80777;-64
2023/05/17 14:05:26;;;;;;;3.50;2.25;;;22.30;54.10;;;;;;7601492;23;80280;-65
2023/05/17 14:08:26;;;;;;;4.00;2.25;;;22.30;54.10;;;;;;7601236;23;81809;-65
2023/05/17 14:11:27;;;;;;;4.53;2.05;;;22.20;54.10;;;;;;7583784;23;81054;-67
2023/05/17 14:14:27;;;;;;;5.75;2.08;;;22.10;54.10;;;;;;7603336;23;81256;-66
2023/05/17 14:17:28;;;;;;;3.75;1.98;;;22.20;55.80;;;;;;7600170;23;81266;-67
2023/05/17 14:20:29;;;;;;;3.38;2.03;;;22.30;55.00;;;;;;7581638;23;81866;-67
2023/05/17 14:23:29;;;;;;;7.75;2.40;;;22.40;55.00;;;;;;7598099;23;80675;-65
2023/05/17 14:26:30;;;;;;;4.68;2.20;;;22.50;54.90;;;;;;7601270;23;80303;-67
2023/05/17 14:29:31;;;;;;;3.90;2.03;;;22.50;54.80;;;;;;7603773;23;80813;-67
2023/05/17 14:32:31;;;;;;;3.30;2.35;;;22.60;55.10;;;;;;7588082;23;81193;-67
2023/05/17 14:35:32;;;;;;;8.38;2.30;;;22.60;55.20;;;;;;7600112;23;80829;-71
2023/05/17 14:38:32;;;;;;;5.28;2.00;;;22.70;55.20;;;;;;7600314;23;80536;-70
2023/05/17 14:41:33;;;;;;;3.47;2.25;;;22.70;55.30;;;;;;7599228;23;80504;-64
2023/05/17 14:44:37;;;;;;;6.63;2.20;;;22.70;55.20;;;;;;7602241;23;80908;-67
2023/05/17 14:47:38;;;;;;;3.05;1.90;;;22.80;55.20;;;;;;7601814;23;80292;-63
2023/05/17 14:50:38;;;;;;;4.10;2.40;;;22.80;55.30;;;;;;7602617;23;81030;-61
2023/05/17 14:53:39;;;;;;;7.13;2.47;;;22.80;55.20;;;;;;7591609;23;81151;-61
2023/05/17 14:56:39;;;;;;;4.18;2.33;;;22.90;55.30;;;;;;7601002;23;85525;-60
2023/05/17 14:59:40;;;;;;;4.68;2.30;;;22.90;55.30;;;;;;7600656;23;81254;-61
2023/05/17 15:02:41;;;;;;;6.45;2.40;;;22.90;55.30;;;;;;7600424;23;80579;-63
2023/05/17 15:05:41;;;;;;;3.17;1.90;;;23.00;55.40;;;;;;7601359;23;80961;-60
2023/05/17 15:08:42;;;;;;;4.55;2.30;;;23.00;55.40;;;;;;7592901;23;81165;-61
2023/05/17 15:11:43;;;;;;;3.22;2.03;;;23.00;55.40;;;;;;7603337;23;80363;-59
2023/05/17 15:14:45;;;;;;;3.55;1.95;;;23.00;55.30;;;;;;7599310;23;81259;-60
2023/05/17 15:17:45;;;;;;;7.97;2.35;;;23.00;55.30;;;;;;7575580;23;83340;-59
2023/05/17 15:20:46;;;;;;;5.30;2.90;;;23.00;55.40;;;;;;7601244;23;81113;-60
2023/05/17 15:23:48;;;;;;;3.40;2.13;;;23.00;55.40;;;;;;7471417;23;82657;-60
2023/05/17 15:26:49;;;;;;;5.25;2.17;;;23.00;55.40;;;;;;7599958;23;81066;-61
2023/05/17 15:29:49;;;;;;;3.13;2.10;;;23.10;55.50;;;;;;7599349;23;80716;-59
2023/05/17 15:32:50;;;;;;;3.58;2.40;;;23.00;55.60;;;;;;7599736;23;80635;-58
2023/05/17 15:35:52;;;;;;;5.05;3.38;;;23.10;55.60;;;;;;7598280;23;80286;-59
2023/05/17 15:38:52;;;;;;;3.60;2.60;;;23.10;55.60;;;;;;7600943;23;80860;-59
2023/05/17 15:41:53;;;;;;;7.93;2.60;;;23.00;56.10;;;;;;7602154;23;80997;-61